This is the latest recevied weather packets stored in our database for station/object SV2RIM-2. If no packets are shown the sender has not sent any weather packets the latest 10 day(s).
| Time | Temp. | Humidity | Pressure | Rain* | Wind** | Luminosity | Snow |
|---|---|---|---|---|---|---|---|
| 1777624519 | 17.22° C | 45% | 1021.1 hPa | 4.32 mm | - | - | - |
| 1777623919 | 15.56° C | 48% | 1021 hPa | 4.32 mm | - | - | - |
| 1777623319 | 13.89° C | 52% | 1021 hPa | 4.32 mm | - | - | - |
| 1777622719 | 16.67° C | 44% | 1021 hPa | 4.32 mm | - | - | - |
| 1777622119 | 15° C | 46% | 1021 hPa | 4.32 mm | - | - | - |
| 1777621519 | 13.89° C | 49% | 1021 hPa | 4.32 mm | - | - | - |
| 1777620919 | 15° C | 45% | 1021 hPa | 4.32 mm | - | - | - |
| 1777620319 | 15° C | 43% | 1021 hPa | 4.32 mm | - | - | - |
| 1777619719 | 15° C | 43% | 1020.9 hPa | 4.32 mm | - | - | - |
| 1777619119 | 13.89° C | 45% | 1020.9 hPa | 4.32 mm | - | - | - |
| 1777618519 | 13.33° C | 46% | 1020.9 hPa | 4.32 mm | - | - | - |
| 1777617919 | 13.33° C | 46% | 1020.9 hPa | 4.32 mm | - | - | - |
| 1777617319 | 12.78° C | 47% | 1020.8 hPa | 4.32 mm | - | - | - |
| 1777616719 | 13.33° C | 46% | 1020.7 hPa | 4.32 mm | - | - | - |
| 1777616119 | 12.78° C | 46% | 1020.6 hPa | 4.32 mm | - | - | - |
| 1777615519 | 12.78° C | 47% | 1020.5 hPa | 4.32 mm | - | - | - |
| 1777614919 | 11.67° C | 49% | 1020.5 hPa | 4.32 mm | - | - | - |
| 1777614319 | 11.67° C | 48% | 1020.5 hPa | 4.32 mm | - | - | - |
| 1777613719 | 11.67° C | 48% | 1020.4 hPa | 4.32 mm | - | - | - |
| 1777613119 | 11.11° C | 49% | 1020.3 hPa | 4.32 mm | - | - | - |
| 1777612519 | 8.89° C | 57% | 1020.3 hPa | 4.32 mm | - | - | - |
| 1777611919 | 7.78° C | 61% | 1020.3 hPa | 4.32 mm | - | - | - |
| 1777611319 | 6.67° C | 63% | 1020.3 hPa | 4.32 mm | - | - | - |
| 1777610719 | 6.67° C | 63% | 1020.2 hPa | 4.32 mm | - | - | - |
| 1777610119 | 5.56° C | 66% | 1020 hPa | 4.32 mm | - | - | - |
* Rain latest 24 hours (hover to see other rain measurements)
** Current wind speed in m/s (hover to see current wind gust speed)